KMXF/MXF METAR and TAF weather

Enter ICAO airport designator
Station Type Date Time Source
KMXF METAR 2019/06/19 00:11 UTC NOAA

KMXF 190011Z AUTO 18004KT 10SM OVC020 25/22 A2991 RMK AO2 SLP130


Station Type Date Time Source
KMXF Decoded METAR 2019/06/19 00:11 UTC NOAA

Maxwell Air Force Base / Montgomery, AL, United States (KMXF) 32-23N 086-22W
Jun 18, 2019 - 08:11 PM EDT / 2019.06.19 0011 UTC
Wind: from the S (180 degrees) at 5 MPH (4 KT):0
Visibility: 10 mile(s):0
Sky conditions: overcast
Temperature: 77 F (25 C)
Dew Point: 71 F (22 C)
Relative Humidity: 83%
Pressure (altimeter): 29.91 in. Hg (1012 hPa)
ob: KMXF 190011Z AUTO 18004KT 10SM OVC020 25/22 A2991 RMK AO2 SLP130
cycle: 0

Station Type Date Time Source
KMXF TAF 2019/06/18 19:19 UTC NOAA

TAF KMXF 181900Z 1819/2001 21009KT 8000 -SHRA SCT015 BKN050 BKN200 QNH2990INS
TEMPO 1819/1823 21020G30KT 3200 TSRA BKN015CB
BECMG 1900/1901 20006KT 9999 NSW OVC025 QNH2989INS
BECMG 1905/1906 22003KT 8000 BR SCT009 BKN015 QNH2990INS
BECMG 1912/1913 23006KT 9999 NSW FEW025 SCT050 QNH2986INS
BECMG 1917/1918 26012KT 8000 -SHRA BKN050 QNH2981INS
BECMG 1922/1923 26006KT 9999 NSW FEW050 QNH2978INS TX31/1821Z TN22/1910Z LAST NO
AMDS AFT 1903 NEXT 1911

Example: see airport list